Time;durP1;ratioP1;P1;durP2;ratioP2;P2;SDS_P1;SDS_P2;PMS_P1;PMS_P2;Temp;Humidity;BMP_temperature;BMP_pressure;BME280_temperature;BME280_humidity;BME280_pressure;Samples;Min_cycle;Max_cycle;Signal;HPM_P1;HPM_P2
2022/05/06 00:00:05;;;;;;;3.03;1.42;;;;;;;13.85;76.93;101700.94;5031195;28;20088;-64
2022/05/06 00:02:31;;;;;;;2.55;1.40;;;;;;;13.86;76.72;101697.06;5029792;28;20037;-64
2022/05/06 00:04:56;;;;;;;2.10;1.48;;;;;;;13.83;76.78;101707.84;5031102;28;20043;-64
2022/05/06 00:07:22;;;;;;;3.65;1.42;;;;;;;13.71;77.31;101697.88;5030630;28;20081;-64
2022/05/06 00:09:47;;;;;;;4.45;1.58;;;;;;;13.69;77.21;101702.84;5031266;28;20502;-64
2022/05/06 00:12:13;;;;;;;2.80;1.38;;;;;;;13.69;77.35;101702.84;5030092;28;20448;-64
2022/05/06 00:14:39;;;;;;;2.75;1.60;;;;;;;13.67;77.54;101702.41;5030409;28;20451;-64
2022/05/06 00:17:06;;;;;;;4.65;1.42;;;;;;;13.63;77.77;101698.84;5027760;28;20365;-64
2022/05/06 00:19:32;;;;;;;2.80;1.48;;;;;;;13.55;78.38;101697.06;5028563;28;20095;-64
2022/05/06 00:21:57;;;;;;;3.38;1.50;;;;;;;13.51;78.48;101693.53;5030331;28;20033;-64
2022/05/06 00:24:23;;;;;;;3.83;1.58;;;;;;;13.48;77.96;101705.81;5029663;28;20037;-64
2022/05/06 00:26:48;;;;;;;4.53;2.10;;;;;;;13.45;78.28;101689.50;5029413;28;20041;-63
2022/05/06 00:29:14;;;;;;;3.00;1.20;;;;;;;13.46;78.54;101696.47;5025634;28;20075;-64
2022/05/06 00:31:40;;;;;;;3.00;1.50;;;;;;;13.39;78.45;101699.00;5028248;28;20037;-64
2022/05/06 00:34:09;;;;;;;2.97;1.20;;;;;;;13.38;78.82;101697.41;5024786;28;20041;-64
2022/05/06 00:36:36;;;;;;;2.10;1.30;;;;;;;13.36;78.59;101694.28;5028056;28;20021;-64
2022/05/06 00:39:02;;;;;;;4.10;1.65;;;;;;;13.32;78.79;101696.09;5029649;28;20028;-64
2022/05/06 00:41:27;;;;;;;7.05;2.03;;;;;;;13.28;78.90;101697.94;5029109;28;20392;-64
2022/05/06 00:43:53;;;;;;;6.05;1.98;;;;;;;13.22;79.52;101700.09;5028397;28;20030;-63
2022/05/06 00:46:19;;;;;;;1.80;1.30;;;;;;;13.18;79.32;101696.50;5029256;28;20037;-64
2022/05/06 00:48:46;;;;;;;3.00;1.75;;;;;;;13.19;79.43;101705.41;5026370;28;20021;-64
2022/05/06 00:51:13;;;;;;;6.60;1.65;;;;;;;13.17;79.70;101699.56;5029896;28;20112;-64
2022/05/06 00:53:40;;;;;;;3.33;1.50;;;;;;;13.17;79.56;101696.88;5027129;28;20037;-64
2022/05/06 00:56:11;;;;;;;5.40;1.50;;;;;;;13.21;79.49;101700.44;5009162;28;20079;-64
2022/05/06 00:58:37;;;;;;;3.30;1.58;;;;;;;13.17;79.00;101694.94;5028354;28;20067;-64
2022/05/06 01:01:03;;;;;;;4.32;2.00;;;;;;;13.16;79.56;101698.78;5027463;28;20033;-63
2022/05/06 01:03:30;;;;;;;5.85;1.88;;;;;;;13.06;79.53;101696.59;5010619;28;20515;-65
2022/05/06 01:05:56;;;;;;;5.00;2.47;;;;;;;13.14;78.95;101694.88;5009320;28;20083;-63
2022/05/06 01:08:22;;;;;;;1.65;1.10;;;;;;;13.08;79.27;101688.13;5010537;28;21598;-63
2022/05/06 01:10:48;;;;;;;4.00;2.00;;;;;;;13.02;79.58;101687.56;5026086;28;20017;-63
2022/05/06 01:13:15;;;;;;;3.72;1.75;;;;;;;13.04;79.87;101698.06;5026267;28;20033;-64
2022/05/06 01:15:40;;;;;;;6.95;2.20;;;;;;;12.97;79.91;101697.84;5010614;28;20040;-64
2022/05/06 01:18:14;;;;;;;4.25;1.80;;;;;;;12.85;80.31;101709.50;5008547;28;20037;-64
2022/05/06 01:20:48;;;;;;;2.55;1.42;;;;;;;12.84;80.70;101715.22;5027294;28;20047;-64
2022/05/06 01:23:14;;;;;;;3.40;1.73;;;;;;;12.88;80.13;101716.91;5011746;28;20041;-63
2022/05/06 01:25:41;;;;;;;4.15;1.85;;;;;;;12.89;80.23;101713.06;5026465;28;20030;-64
2022/05/06 01:28:12;;;;;;;3.45;1.83;;;;;;;12.85;80.01;101722.22;5010685;28;20025;-64
2022/05/06 01:30:42;;;;;;;2.53;1.70;;;;;;;12.81;80.50;101718.63;5028936;28;20033;-64
2022/05/06 01:33:12;;;;;;;6.18;1.98;;;;;;;12.70;80.30;101724.50;5027848;28;20108;-64
2022/05/06 01:35:57;;;;;;;2.25;1.58;;;;;;;12.74;79.96;101724.59;5025909;28;20037;-64
2022/05/06 01:38:40;;;;;;;3.90;1.95;;;;;;;12.66;80.78;101722.81;5028413;28;20025;-63
2022/05/06 01:41:37;;;;;;;3.83;2.03;;;;;;;12.61;81.17;101718.47;5002649;28;20029;-64
2022/05/06 01:44:12;;;;;;;3.15;1.88;;;;;;;12.62;80.51;101730.84;5010809;28;20087;-64
2022/05/06 01:46:39;;;;;;;6.55;1.67;;;;;;;12.57;80.95;101728.38;5024745;28;20025;-64
2022/05/06 01:49:10;;;;;;;3.97;1.27;;;;;;;12.67;80.10;101724.41;5026096;28;20036;-64
2022/05/06 01:51:38;;;;;;;3.22;2.22;;;;;;;12.54;81.00;101726.34;5011369;28;20026;-64
2022/05/06 01:54:08;;;;;;;;;;;;;;;12.55;80.70;101725.22;5011484;28;20373;-64
2022/05/06 01:56:35;;;;;;;2.60;1.33;;;;;;;12.39;81.50;101726.25;5023785;28;19913;-64
2022/05/06 01:59:01;;;;;;;3.45;1.40;;;;;;;12.38;81.47;101724.69;5026270;28;20042;-64
2022/05/06 02:01:29;;;;;;;4.43;1.65;;;;;;;12.35;81.39;101726.16;5026406;28;20029;-63
2022/05/06 02:06:39;;;;;;;3.63;1.52;;;;;;;12.28;81.30;101733.25;5010992;28;20647;-63
2022/05/06 02:09:11;;;;;;;4.82;1.85;;;;;;;12.22;81.52;101727.31;5033876;28;20454;-64
2022/05/06 02:11:53;;;;;;;3.88;1.52;;;;;;;12.18;81.45;101723.69;5034647;28;20033;-64
2022/05/06 02:14:19;;;;;;;3.38;1.50;;;;;;;12.14;81.43;101725.50;4999134;28;20057;-64
2022/05/06 02:17:08;;;;;;;3.90;1.58;;;;;;;12.05;82.35;101727.53;5003077;28;20030;-63
2022/05/06 02:19:49;;;;;;;2.92;1.20;;;;;;;12.10;80.95;101721.13;5019473;28;20039;-64
2022/05/06 02:22:29;;;;;;;1.83;1.40;;;;;;;11.96;82.21;101721.47;5033534;28;20030;-65
2022/05/06 02:25:09;;;;;;;3.28;1.30;;;;;;;12.00;81.83;101719.66;5032147;28;20033;-63
2022/05/06 02:27:52;;;;;;;3.08;1.40;;;;;;;12.04;82.00;101727.88;5010904;28;20112;-62
2022/05/06 02:33:15;;;;;;;3.05;1.80;;;;;;;11.97;82.51;101728.44;5033586;28;20377;-63
2022/05/06 02:35:45;;;;;;;3.50;1.33;;;;;;;11.90;82.59;101725.50;5012490;28;20518;-64
2022/05/06 02:38:15;;;;;;;2.28;1.35;;;;;;;11.97;82.45;101730.34;5015313;28;20168;-64
2022/05/06 02:40:41;;;;;;;3.83;1.80;;;;;;;11.91;83.22;101724.38;5032770;28;20453;-64
2022/05/06 02:43:07;;;;;;;2.50;1.33;;;;;;;11.98;82.36;101724.59;5032710;28;20017;-64
2022/05/06 02:45:35;;;;;;;10.73;2.17;;;;;;;11.91;83.07;101724.38;5033340;28;20491;-65
2022/05/06 02:48:02;;;;;;;4.03;1.45;;;;;;;11.93;83.00;101722.13;5031562;28;20053;-64
2022/05/06 02:50:30;;;;;;;2.08;1.30;;;;;;;11.89;82.71;101721.22;5031429;28;20488;-65
2022/05/06 02:52:56;;;;;;;2.58;1.73;;;;;;;12.00;82.23;101716.94;5015772;28;20021;-64
2022/05/06 02:55:23;;;;;;;2.67;1.40;;;;;;;11.97;83.32;101725.72;5024025;28;20033;-62
2022/05/06 02:57:51;;;;;;;1.40;0.90;;;;;;;12.03;82.62;101716.28;5009405;28;20466;-65
2022/05/06 03:00:18;;;;;;;3.90;1.70;;;;;;;12.06;82.79;101721.00;5012813;28;20044;-64
2022/05/06 03:02:44;;;;;;;4.00;1.50;;;;;;;12.05;83.74;101718.66;5005209;28;20084;-64
2022/05/06 03:05:10;;;;;;;4.18;1.88;;;;;;;12.07;83.61;101719.88;5029705;28;20033;-64
2022/05/06 03:07:36;;;;;;;4.13;1.60;;;;;;;12.10;84.17;101713.81;4999120;28;20403;-65
2022/05/06 03:10:03;;;;;;;5.18;1.83;;;;;;;12.10;84.85;101716.50;5015706;28;20096;-64
2022/05/06 03:12:32;;;;;;;4.75;1.90;;;;;;;12.15;84.44;101721.69;5026396;28;20155;-64
2022/05/06 03:15:05;;;;;;;2.88;1.38;;;;;;;12.14;84.48;101717.41;5027254;28;20033;-65
2022/05/06 03:17:38;;;;;;;2.42;1.42;;;;;;;12.13;84.36;101718.53;5028259;28;20653;-64
2022/05/06 03:20:07;;;;;;;4.78;1.88;;;;;;;12.17;84.54;101722.13;5011780;28;20034;-63
2022/05/06 03:22:46;;;;;;;5.28;1.42;;;;;;;12.15;84.27;101726.28;5013720;28;20037;-65
2022/05/06 03:25:13;;;;;;;2.92;1.40;;;;;;;12.09;84.76;101723.03;5014960;28;20496;-63
2022/05/06 03:30:28;;;;;;;3.50;1.77;;;;;;;12.17;83.58;101722.13;5032864;28;20120;-63
2022/05/06 03:32:59;;;;;;;6.43;1.73;;;;;;;12.10;83.94;101723.84;5015860;28;20029;-64
2022/05/06 03:35:29;;;;;;;5.63;2.28;;;;;;;11.99;83.37;101726.19;5015646;28;20381;-65
2022/05/06 03:37:56;;;;;;;3.33;1.52;;;;;;;11.88;84.14;101721.56;5030553;28;20041;-63
2022/05/06 03:40:22;;;;;;;3.65;1.85;;;;;;;11.80;84.20;101725.97;5029624;28;20025;-62
2022/05/06 03:42:48;;;;;;;2.20;1.55;;;;;;;11.74;84.23;101727.28;5032064;28;20033;-64
2022/05/06 03:45:14;;;;;;;4.25;2.08;;;;;;;11.70;84.54;101726.38;5029232;28;20038;-64
2022/05/06 03:47:43;;;;;;;4.20;2.15;;;;;;;11.68;84.63;101726.72;5030864;28;20026;-64
2022/05/06 03:52:55;;;;;;;3.10;1.67;;;;;;;11.56;84.71;101725.88;5030262;28;20031;-64
2022/05/06 03:55:22;;;;;;;3.25;1.25;;;;;;;11.54;84.63;101731.63;5028529;28;20092;-64
2022/05/06 03:57:49;;;;;;;2.92;1.13;;;;;;;11.61;84.54;101736.47;5030876;28;20049;-63
2022/05/06 04:00:19;;;;;;;3.72;1.80;;;;;;;11.50;84.83;101733.41;5011116;28;20029;-64
2022/05/06 04:02:52;;;;;;;5.88;1.52;;;;;;;11.62;83.88;101728.03;5027741;28;22195;-64
2022/05/06 04:05:22;;;;;;;3.33;1.45;;;;;;;11.59;84.33;101725.22;5011685;28;20025;-64
2022/05/06 04:07:49;;;;;;;3.88;1.58;;;;;;;11.46;84.84;101729.00;5020501;28;20017;-63
2022/05/06 04:10:15;;;;;;;3.80;2.00;;;;;;;11.43;85.30;101732.38;5011352;28;20040;-64
2022/05/06 04:12:41;;;;;;;2.83;1.05;;;;;;;11.32;85.47;101737.41;5013073;28;20116;-64
2022/05/06 04:15:09;;;;;;;2.70;1.48;;;;;;;11.39;86.02;101732.25;5013811;28;20103;-64
2022/05/06 04:17:36;;;;;;;2.58;1.48;;;;;;;11.55;84.80;101741.28;5027091;28;20049;-64
2022/05/06 04:25:35;;;;;;;6.88;2.17;;;;;;;11.71;83.79;101744.94;5024327;28;20290;-65
2022/05/06 04:28:02;;;;;;;3.85;1.50;;;;;;;11.66;84.49;101752.47;5010530;28;20519;-64
2022/05/06 04:30:28;;;;;;;5.03;1.73;;;;;;;11.64;84.94;101755.47;5016286;28;20025;-63
2022/05/06 04:33:03;;;;;;;8.93;1.50;;;;;;;11.68;84.06;101747.53;5030213;28;20384;-64
2022/05/06 04:35:28;;;;;;;2.33;1.30;;;;;;;11.59;85.15;101750.28;5004069;28;20072;-64
2022/05/06 04:37:55;;;;;;;2.95;2.15;;;;;;;11.58;84.74;101750.59;5010240;28;20447;-64
2022/05/06 04:40:21;;;;;;;3.97;1.63;;;;;;;11.63;85.02;101753.13;5022838;28;20032;-63
2022/05/06 04:42:46;;;;;;;3.50;1.80;;;;;;;11.64;85.25;101754.66;5023758;28;20124;-63
2022/05/06 04:45:13;;;;;;;2.47;1.73;;;;;;;11.68;85.35;101750.22;4999733;28;20040;-64
2022/05/06 04:47:49;;;;;;;4.75;1.77;;;;;;;11.85;85.33;101757.31;4996870;28;20116;-64
2022/05/06 04:50:16;;;;;;;3.28;2.33;;;;;;;11.93;84.85;101757.22;5024235;28;20116;-65
2022/05/06 04:52:42;;;;;;;2.90;2.15;;;;;;;12.06;84.74;101758.03;5010496;28;20125;-64
2022/05/06 04:55:08;;;;;;;2.42;1.67;;;;;;;12.18;84.45;101766.91;5009159;28;20075;-64
2022/05/06 04:57:34;;;;;;;2.38;1.42;;;;;;;12.24;83.99;101767.47;5026796;28;20037;-65
2022/05/06 05:00:00;;;;;;;3.50;1.88;;;;;;;12.28;84.43;101761.06;5029464;28;20487;-65
2022/05/06 05:02:27;;;;;;;3.22;1.75;;;;;;;12.44;83.42;101763.88;5004037;28;20414;-64
2022/05/06 05:04:57;;;;;;;4.35;2.58;;;;;;;12.59;82.76;101772.06;5028640;28;20112;-64
2022/05/06 05:07:24;;;;;;;3.95;2.08;;;;;;;12.61;83.07;101767.09;5026931;28;20518;-64
2022/05/06 05:09:54;;;;;;;1.60;1.20;;;;;;;12.63;83.44;101769.47;5011322;28;20040;-64
2022/05/06 05:12:24;;;;;;;3.75;1.58;;;;;;;12.66;84.33;101766.88;5025241;28;20097;-65
2022/05/06 05:14:50;;;;;;;2.70;1.50;;;;;;;12.74;84.06;101769.78;5012073;28;20434;-64
2022/05/06 05:17:20;;;;;;;5.32;2.03;;;;;;;13.01;83.83;101775.22;5026203;28;20075;-64
2022/05/06 05:19:46;;;;;;;4.45;2.08;;;;;;;13.51;82.08;101780.13;5002067;28;20029;-64
2022/05/06 05:22:12;;;;;;;5.72;2.50;;;;;;;14.24;79.24;101778.50;5005151;28;20029;-64
2022/05/06 05:24:40;;;;;;;6.50;2.40;;;;;;;14.94;76.35;101773.88;5009003;28;20029;-64
2022/05/06 05:27:06;;;;;;;12.88;2.88;;;;;;;15.63;73.23;101778.34;5027867;28;20033;-64
2022/05/06 05:29:33;;;;;;;8.02;2.28;;;;;;;16.27;68.64;101775.56;5005345;28;20567;-65
2022/05/06 05:31:59;;;;;;;3.25;1.85;;;;;;;16.67;66.39;101785.06;5009997;28;20068;-65
2022/05/06 05:34:26;;;;;;;9.05;2.78;;;;;;;16.96;64.58;101784.31;5012034;28;20036;-65
2022/05/06 05:36:51;;;;;;;6.38;2.22;;;;;;;17.18;63.67;101780.69;5025141;28;20025;-64
2022/05/06 05:39:17;;;;;;;8.80;3.05;;;;;;;17.32;62.63;101785.50;5009465;28;20033;-64
2022/05/06 05:41:44;;;;;;;8.43;2.35;;;;;;;17.39;62.86;101791.81;5010171;28;20040;-64
2022/05/06 05:49:43;;;;;;;8.93;2.13;;;;;;;17.36;64.77;101786.34;5030074;28;20116;-65
2022/05/06 05:52:09;;;;;;;6.15;2.42;;;;;;;17.40;64.74;101785.19;5025110;28;20079;-64
2022/05/06 05:54:35;;;;;;;14.65;3.45;;;;;;;17.32;64.43;101780.84;5003222;28;20025;-64
2022/05/06 05:57:01;;;;;;;10.45;2.55;;;;;;;17.25;64.74;101780.00;5008197;28;20456;-65
2022/05/06 05:59:27;;;;;;;6.97;2.58;;;;;;;17.18;66.09;101783.41;5018570;28;20483;-65
2022/05/06 06:01:55;;;;;;;11.23;2.20;;;;;;;17.15;65.58;101781.41;5009344;28;20026;-64
2022/05/06 06:04:21;;;;;;;5.50;2.17;;;;;;;17.14;67.13;101788.03;5022878;28;20026;-64
2022/05/06 06:06:47;;;;;;;6.18;2.17;;;;;;;17.17;67.25;101779.09;5006553;28;20381;-64
2022/05/06 06:09:17;;;;;;;8.00;2.42;;;;;;;17.22;66.39;101786.97;5010401;28;20061;-64
2022/05/06 06:11:44;;;;;;;5.63;2.13;;;;;;;17.13;67.34;101789.16;5007426;28;20079;-64
2022/05/06 06:14:12;;;;;;;7.70;2.90;;;;;;;17.00;68.48;101787.84;5022294;28;20080;-64
2022/05/06 06:16:38;;;;;;;6.93;2.08;;;;;;;17.07;70.06;101790.69;5023715;28;20026;-64
2022/05/06 06:19:03;;;;;;;8.30;2.28;;;;;;;17.23;69.69;101782.31;5007826;28;20026;-64
2022/05/06 06:21:35;;;;;;;8.27;2.53;;;;;;;17.34;69.16;101783.22;5023977;28;20056;-64
2022/05/06 06:24:01;;;;;;;6.15;2.28;;;;;;;17.45;70.16;101787.59;5009256;28;20522;-64
2022/05/06 06:26:26;;;;;;;4.55;2.60;;;;;;;17.54;69.72;101793.56;5017997;28;20033;-64
2022/05/06 06:28:54;;;;;;;9.25;2.72;;;;;;;17.65;69.74;101796.41;5023910;28;20021;-64
2022/05/06 06:31:20;;;;;;;10.52;2.30;;;;;;;17.63;69.76;101796.78;5018793;28;20049;-66
2022/05/06 06:33:48;;;;;;;8.25;2.83;;;;;;;17.71;69.13;101797.63;5004109;28;20091;-65
2022/05/06 06:36:22;;;;;;;5.28;2.33;;;;;;;17.79;69.44;101791.88;5006650;28;20033;-64
2022/05/06 06:38:47;;;;;;;6.10;2.10;;;;;;;17.86;68.72;101788.44;5023699;28;20455;-65
2022/05/06 06:41:13;;;;;;;6.25;2.53;;;;;;;17.89;68.63;101784.94;5022482;28;20064;-65
2022/05/06 06:43:38;;;;;;;6.35;2.70;;;;;;;18.01;68.86;101787.38;5010664;28;20258;-65
2022/05/06 06:46:15;;;;;;;8.98;2.97;;;;;;;18.11;65.67;101796.81;5023798;28;20101;-65
2022/05/06 06:49:12;;;;;;;6.65;1.83;;;;;;;17.97;67.52;101795.53;4999269;28;20504;-66
2022/05/06 06:52:01;;;;;;;8.85;2.60;;;;;;;18.02;64.81;101781.56;5007145;28;20488;-64
2022/05/06 06:54:26;;;;;;;12.65;2.72;;;;;;;17.81;64.70;101795.00;5011864;28;20036;-65
2022/05/06 06:56:52;;;;;;;11.68;3.13;;;;;;;17.66;65.65;101792.50;5024961;28;20087;-65
2022/05/06 06:59:17;;;;;;;6.03;2.63;;;;;;;17.61;66.92;101790.94;5021175;28;20030;-63
2022/05/06 07:01:42;;;;;;;6.68;2.60;;;;;;;17.65;65.52;101799.91;5012116;28;20512;-65
2022/05/06 07:04:08;;;;;;;10.80;3.05;;;;;;;17.69;67.41;101800.72;5023251;28;20049;-65
2022/05/06 07:12:01;;;;;;;7.65;2.88;;;;;;;17.97;65.79;101798.28;5028885;28;20091;-65
2022/05/06 07:14:35;;;;;;;7.95;2.42;;;;;;;18.05;65.21;101796.38;4996753;28;20113;-64
2022/05/06 07:17:02;;;;;;;6.35;2.60;;;;;;;18.12;66.38;101801.88;5024681;28;20037;-65
2022/05/06 07:19:28;;;;;;;4.18;2.28;;;;;;;18.30;67.10;101807.47;5026453;28;20053;-63
2022/05/06 07:21:54;;;;;;;7.25;2.03;;;;;;;18.54;66.33;101807.69;5024610;28;20105;-63
2022/05/06 07:24:20;;;;;;;6.40;2.67;;;;;;;18.69;66.28;101808.56;5024112;28;20033;-65
2022/05/06 07:26:47;;;;;;;6.55;2.50;;;;;;;18.86;64.57;101810.59;5027483;28;20032;-66
2022/05/06 07:29:13;;;;;;;5.97;2.17;;;;;;;18.80;62.90;101810.19;5026840;28;20038;-65
2022/05/06 07:31:39;;;;;;;10.40;2.47;;;;;;;18.63;63.15;101801.91;5028335;28;20038;-63
2022/05/06 07:34:05;;;;;;;10.70;2.47;;;;;;;18.60;65.51;101805.41;5026292;28;20065;-64
2022/05/06 07:36:31;;;;;;;7.35;2.72;;;;;;;18.79;66.45;101799.66;5027150;28;20479;-65
2022/05/06 07:38:56;;;;;;;7.13;2.83;;;;;;;18.91;66.77;101800.09;5027023;28;20033;-66
2022/05/06 07:41:21;;;;;;;8.05;2.00;;;;;;;19.25;64.39;101805.31;5023090;28;20048;-64
2022/05/06 07:43:47;;;;;;;10.30;3.13;;;;;;;19.43;63.95;101804.25;5019379;28;20567;-64
2022/05/06 07:46:13;;;;;;;7.10;2.60;;;;;;;19.65;63.92;101805.84;5019792;28;20389;-64
2022/05/06 07:48:38;;;;;;;8.98;2.90;;;;;;;19.85;63.02;101800.78;5022162;28;20029;-64
2022/05/06 07:51:04;;;;;;;8.23;2.45;;;;;;;20.06;60.93;101816.41;5024547;28;20485;-65
2022/05/06 07:53:30;;;;;;;10.23;2.72;;;;;;;20.23;61.06;101818.41;5024357;28;20451;-64
2022/05/06 07:55:55;;;;;;;7.85;2.28;;;;;;;20.45;60.55;101809.00;5009273;28;20038;-64
2022/05/06 07:58:21;;;;;;;7.18;2.50;;;;;;;20.46;58.63;101803.13;5028369;28;20037;-64
2022/05/06 08:00:46;;;;;;;7.40;2.05;;;;;;;20.52;58.33;101801.56;5009920;28;20029;-65
2022/05/06 08:05:59;;;;;;;6.55;2.55;;;;;;;20.61;59.70;101806.63;5020415;28;20036;-65
2022/05/06 08:08:29;;;;;;;4.93;1.95;;;;;;;20.63;58.78;101804.28;5026414;28;20050;-66
2022/05/06 08:10:54;;;;;;;6.00;1.98;;;;;;;20.71;57.84;101797.63;5022968;28;20665;-64
2022/05/06 08:13:20;;;;;;;4.97;1.90;;;;;;;20.87;57.32;101797.16;5019429;28;20091;-64
2022/05/06 08:15:47;;;;;;;5.57;2.08;;;;;;;21.12;58.01;101801.41;5024860;28;20196;-64
2022/05/06 08:18:12;;;;;;;5.13;1.92;;;;;;;21.26;57.71;101804.09;5028908;28;20068;-65
2022/05/06 08:20:39;;;;;;;9.13;2.22;;;;;;;21.37;57.88;101810.28;5024491;28;20071;-65
2022/05/06 08:23:06;;;;;;;4.90;2.08;;;;;;;21.48;56.46;101811.03;5026521;28;20048;-66
2022/05/06 08:25:32;;;;;;;5.55;2.00;;;;;;;21.54;54.06;101809.41;5027472;28;20490;-66
2022/05/06 08:27:57;;;;;;;4.20;2.25;;;;;;;21.55;55.39;101799.22;5009112;28;20511;-65
2022/05/06 08:30:23;;;;;;;5.47;1.65;;;;;;;21.65;56.21;101801.13;5005475;28;20052;-66
2022/05/06 08:32:48;;;;;;;7.65;1.95;;;;;;;21.77;55.65;101808.09;5027581;28;20025;-65
2022/05/06 08:35:14;;;;;;;5.05;1.73;;;;;;;21.95;54.25;101800.56;5031055;28;20487;-65
2022/05/06 08:37:45;;;;;;;7.93;2.28;;;;;;;21.89;53.29;101802.16;5028290;28;20049;-65
2022/05/06 08:40:20;;;;;;;8.30;2.17;;;;;;;21.91;54.14;101808.03;5025662;28;20099;-66
2022/05/06 08:42:47;;;;;;;4.10;1.60;;;;;;;22.04;54.33;101804.41;5026093;28;20534;-66
2022/05/06 08:50:56;;;;;;;6.15;1.83;;;;;;;22.48;53.82;101800.84;5025661;28;20029;-66
2022/05/06 08:53:26;;;;;;;4.72;1.73;;;;;;;22.72;51.06;101805.34;5026208;28;20048;-66
2022/05/06 08:55:54;;;;;;;2.65;1.63;;;;;;;22.67;51.40;101805.78;5030103;28;20048;-65
2022/05/06 08:58:20;;;;;;;5.13;1.52;;;;;;;22.77;51.04;101804.88;5012094;28;20112;-65
2022/05/06 09:00:46;;;;;;;4.15;1.98;;;;;;;22.81;51.84;101797.38;5026432;28;20484;-66
2022/05/06 09:03:15;;;;;;;1.98;0.82;;;;;;;22.91;51.09;101793.72;5028681;28;20396;-65
2022/05/06 09:05:55;;;;;;;3.60;1.80;;;;;;;23.04;49.86;101797.50;5022253;28;20062;-66
2022/05/06 09:08:21;;;;;;;5.30;1.75;;;;;;;23.04;51.20;101789.25;5028037;28;20445;-64
2022/05/06 09:10:59;;;;;;;2.30;1.48;;;;;;;23.33;50.68;101799.88;5024452;28;20086;-64
2022/05/06 09:13:25;;;;;;;3.80;1.33;;;;;;;23.42;50.12;101789.19;5027648;28;20041;-63
2022/05/06 09:18:36;;;;;;;3.92;1.38;;;;;;;23.60;49.53;101793.22;5010414;28;20087;-64
2022/05/06 09:21:11;;;;;;;4.80;1.70;;;;;;;23.59;47.60;101790.88;5017345;28;20029;-65
2022/05/06 09:23:37;;;;;;;4.57;1.55;;;;;;;23.48;48.55;101796.53;5020510;28;20120;-64
2022/05/06 09:26:02;;;;;;;8.05;1.55;;;;;;;23.73;48.71;101802.44;5017994;28;20464;-64
2022/05/06 09:28:30;;;;;;;4.82;1.45;;;;;;;23.90;48.62;101797.88;5003163;28;20025;-64
2022/05/06 09:31:06;;;;;;;3.65;1.02;;;;;;;24.11;48.48;101801.09;5017966;28;20120;-65
2022/05/06 09:33:37;;;;;;;5.68;1.27;;;;;;;24.34;47.52;101796.75;5019918;28;20029;-64
2022/05/06 09:36:26;;;;;;;4.28;1.40;;;;;;;24.44;46.69;101801.28;5023116;28;20735;-64
2022/05/06 09:39:10;;;;;;;3.50;1.20;;;;;;;24.63;46.48;101798.56;5018803;28;20029;-64
2022/05/06 09:41:38;;;;;;;3.85;1.42;;;;;;;24.65;46.68;101801.69;5020427;28;20047;-64
2022/05/06 09:44:05;;;;;;;4.88;1.42;;;;;;;24.75;46.24;101795.22;5016465;28;20041;-64
2022/05/06 09:46:31;;;;;;;5.15;2.05;;;;;;;24.82;46.15;101795.06;5024915;28;20037;-65
2022/05/06 09:48:58;;;;;;;2.95;1.60;;;;;;;24.80;46.14;101802.97;5021967;28;20029;-64
2022/05/06 09:51:25;;;;;;;4.88;1.23;;;;;;;24.96;46.46;101794.78;5020913;28;20500;-64
2022/05/06 09:53:50;;;;;;;2.42;1.13;;;;;;;25.14;45.59;101805.44;5018655;28;20496;-65
2022/05/06 09:56:16;;;;;;;1.65;0.95;;;;;;;25.30;45.26;101794.44;5021012;28;20053;-65
2022/05/06 09:58:42;;;;;;;2.88;1.15;;;;;;;25.32;44.59;101800.31;5022903;28;20030;-65
2022/05/06 10:01:08;;;;;;;5.18;1.25;;;;;;;25.48;43.50;101800.38;5022211;28;20033;-64
2022/05/06 10:03:33;;;;;;;1.98;0.95;;;;;;;25.61;44.54;101797.75;5023678;28;20495;-65
2022/05/06 10:06:02;;;;;;;3.63;1.33;;;;;;;25.63;44.40;101787.03;5022294;28;20068;-65
2022/05/06 10:08:30;;;;;;;2.92;1.73;;;;;;;25.74;43.08;101787.56;5020055;28;20030;-66
2022/05/06 10:10:59;;;;;;;2.92;1.17;;;;;;;25.99;43.26;101786.94;5017428;28;20407;-66
2022/05/06 10:13:28;;;;;;;2.17;1.00;;;;;;;25.90;42.37;101791.09;5018573;28;20086;-67
2022/05/06 10:15:54;;;;;;;2.20;1.13;;;;;;;26.15;42.27;101779.44;5018801;28;20029;-65
2022/05/06 10:18:34;;;;;;;3.97;1.20;;;;;;;26.23;42.48;101786.34;5005250;28;20100;-65
2022/05/06 10:21:01;;;;;;;4.60;1.20;;;;;;;26.28;42.20;101776.75;5009888;28;20524;-67
2022/05/06 10:23:45;;;;;;;1.77;0.80;;;;;;;26.36;42.12;101789.19;5013939;28;20060;-67
2022/05/06 10:26:40;;;;;;;1.63;0.77;;;;;;;26.16;42.45;101783.78;5019507;28;20033;-66
2022/05/06 10:35:12;;;;;;;3.60;1.35;;;;;;;26.64;41.46;101774.56;5027727;28;20123;-66
2022/05/06 10:37:39;;;;;;;;;;;;;;;26.66;41.50;101770.16;5024077;28;20034;-67
2022/05/06 10:40:22;;;;;;;1.73;0.73;;;;;;;26.73;40.33;101764.44;5022138;28;19917;-67
2022/05/06 10:42:48;;;;;;;2.72;0.95;;;;;;;27.04;40.47;101773.03;5015597;28;20026;-67
2022/05/06 10:45:30;;;;;;;1.73;0.77;;;;;;;27.28;40.44;101770.75;5019607;28;20500;-66
2022/05/06 10:47:57;;;;;;;2.08;0.82;;;;;;;27.36;38.87;101766.56;5018300;28;20392;-66
2022/05/06 10:50:25;;;;;;;2.88;1.00;;;;;;;27.25;39.70;101760.56;5022262;28;20107;-66
2022/05/06 10:52:51;;;;;;;1.05;0.82;;;;;;;27.43;40.42;101761.56;5016848;28;20102;-66
2022/05/06 10:55:18;;;;;;;3.75;1.10;;;;;;;27.45;40.10;101758.34;5021211;28;20045;-67
2022/05/06 10:58:05;;;;;;;2.03;1.40;;;;;;;27.63;39.48;101750.28;5023638;28;20042;-66
2022/05/06 11:00:33;;;;;;;1.17;0.80;;;;;;;27.96;40.29;101751.56;5019496;28;20037;-66
2022/05/06 11:02:59;;;;;;;3.58;1.27;;;;;;;28.17;39.92;101753.59;5013395;28;20034;-66
2022/05/06 11:05:26;;;;;;;2.10;1.50;;;;;;;28.06;39.26;101746.88;5015689;28;20072;-66
2022/05/06 11:07:57;;;;;;;2.03;1.40;;;;;;;28.18;38.88;101749.63;5019612;28;20069;-66
2022/05/06 11:10:27;;;;;;;3.03;1.15;;;;;;;28.32;38.97;101751.13;5022765;28;20484;-66
2022/05/06 11:12:54;;;;;;;2.92;1.23;;;;;;;28.26;38.25;101750.16;5017923;28;20037;-66
2022/05/06 11:15:40;;;;;;;1.80;1.02;;;;;;;28.27;39.14;101740.59;5015209;28;20116;-67
2022/05/06 11:18:07;;;;;;;4.05;1.02;;;;;;;28.20;38.23;101733.28;5017721;28;20054;-66
2022/05/06 11:20:37;;;;;;;2.83;1.20;;;;;;;28.23;38.64;101740.72;5020748;28;20037;-66
2022/05/06 11:23:08;;;;;;;1.63;1.02;;;;;;;28.47;38.75;101727.19;5019879;28;20040;-67
2022/05/06 11:25:44;;;;;;;3.10;1.15;;;;;;;28.46;38.53;101731.19;5015855;28;20033;-67
2022/05/06 11:28:22;;;;;;;3.85;1.23;;;;;;;28.66;38.56;101734.44;5019982;28;20068;-67
2022/05/06 11:30:51;;;;;;;2.30;1.10;;;;;;;28.53;37.49;101730.94;5017548;28;20080;-68
2022/05/06 11:33:24;;;;;;;2.38;1.10;;;;;;;28.32;37.13;101721.38;5015395;28;20297;-67
2022/05/06 11:35:52;;;;;;;3.50;1.30;;;;;;;28.38;37.94;101725.13;5019793;28;20041;-66
2022/05/06 11:38:31;;;;;;;1.65;1.00;;;;;;;28.45;36.78;101718.56;5021155;28;20117;-66
2022/05/06 11:41:05;;;;;;;1.52;0.90;;;;;;;28.27;36.86;101721.97;5019165;28;20061;-68
2022/05/06 11:43:32;;;;;;;3.40;0.82;;;;;;;28.35;37.44;101714.16;5017823;28;20499;-68
2022/05/06 11:48:43;;;;;;;1.17;0.75;;;;;;;27.98;38.00;101717.88;5022226;28;20032;-67
2022/05/06 11:51:11;;;;;;;1.55;0.75;;;;;;;28.08;37.07;101708.41;5021908;28;20179;-67
2022/05/06 11:53:39;;;;;;;2.30;1.10;;;;;;;27.65;37.23;101709.84;5025788;28;20202;-67
2022/05/06 11:56:05;;;;;;;1.05;0.82;;;;;;;27.43;37.38;101706.22;5026172;28;20404;-67
2022/05/06 11:58:34;;;;;;;0.93;0.57;;;;;;;27.36;37.96;101700.13;5027581;28;20041;-67
2022/05/06 12:00:59;;;;;;;1.25;0.80;;;;;;;27.01;38.49;101704.75;5026237;28;20421;-67
2022/05/06 12:03:26;;;;;;;1.45;0.88;;;;;;;26.87;39.38;101696.88;5026516;28;20036;-67
2022/05/06 12:06:01;;;;;;;2.60;1.08;;;;;;;26.82;39.14;101693.91;5026950;28;20041;-67
2022/05/06 12:08:29;;;;;;;1.85;0.82;;;;;;;27.02;39.47;101691.72;5025324;28;20025;-67
2022/05/06 12:11:00;;;;;;;2.65;1.13;;;;;;;27.23;39.55;101696.59;5021859;28;20033;-68
2022/05/06 12:13:52;;;;;;;4.38;1.23;;;;;;;27.23;39.74;101691.81;5020133;28;20090;-68
2022/05/06 12:16:18;;;;;;;2.80;0.80;;;;;;;27.09;39.32;101688.72;4986817;28;20089;-69
2022/05/06 12:18:54;;;;;;;2.50;0.85;;;;;;;27.00;39.33;101685.84;5020324;28;20067;-69